0AK7 weather

Bradley Lake Hydroelectri Project Airstrip
Homer, Alaska, United States

Public forecast

Using degrees Fahrenheit for public forecast. Weather courtesy of forecast.io.

METAR (pilot weather report)

Closest report is Homer Airport, 17.5 nm (32.5 km) WSW. Retrieved 2019/07/19 10:53 UTC (23 minutes ago):

PAHO 191053Z 06003KT 7SM CLR 12/11 A2989 RMK AO2 SLP123 T01170106

TAF (pilot weather forecast)

Closest forecast is Homer Airport, 17.5 nm (32.5 km) WSW. Retrieved 2019/07/19 06:36 UTC (5 hours ago):

TAF PAHO 190534Z 1906/2006 VRB04KT P6SM BKN200 FM192100 25011KT P6SM FEW050 SCT200